createdAt,value
2019-03-26T00:01:59.142Z,78.19
2019-03-26T00:04:25.772Z,77.70
2019-03-26T00:06:52.390Z,77.88
2019-03-26T00:09:19.085Z,76.87
2019-03-26T00:11:45.785Z,77.14
2019-03-26T00:14:12.483Z,77.55
2019-03-26T00:16:39.172Z,77.82
2019-03-26T00:19:05.858Z,76.61
2019-03-26T00:21:32.549Z,77.70
2019-03-26T00:23:59.239Z,77.85
2019-03-26T00:26:25.941Z,77.51
2019-03-26T00:28:52.739Z,78.24
2019-03-26T00:31:19.515Z,78.45
2019-03-26T00:33:46.144Z,78.17
2019-03-26T00:36:12.818Z,77.58
2019-03-26T00:38:39.587Z,77.14
2019-03-26T00:41:06.328Z,77.51
2019-03-26T00:43:32.986Z,77.13
2019-03-26T00:45:59.824Z,76.60
2019-03-26T00:48:26.427Z,76.59
2019-03-26T00:50:53.083Z,76.67
2019-03-26T00:53:20.788Z,76.81
2019-03-26T00:55:47.423Z,76.79
2019-03-26T00:58:14.060Z,76.53
2019-03-26T01:00:41.888Z,76.49
2019-03-26T01:03:08.705Z,76.95
2019-03-26T01:05:35.380Z,77.40
2019-03-26T01:08:02.042Z,77.37
2019-03-26T01:10:28.774Z,77.70
2019-03-26T01:12:55.476Z,78.32
2019-03-26T01:15:22.183Z,78.18
2019-03-26T01:17:48.942Z,78.23
2019-03-26T01:20:16.752Z,76.86
2019-03-26T01:22:43.460Z,77.39
2019-03-26T01:25:10.059Z,78.82
2019-03-26T01:27:36.725Z,78.73
2019-03-26T01:30:05.919Z,78.82
2019-03-26T01:32:32.667Z,77.48
2019-03-26T01:34:59.364Z,77.74
2019-03-26T01:37:27.162Z,78.04
2019-03-26T01:39:53.755Z,78.39
2019-03-26T01:42:20.438Z,79.16
2019-03-26T01:44:47.164Z,79.88
2019-03-26T01:47:13.901Z,78.99
2019-03-26T01:49:40.605Z,79.68
2019-03-26T01:52:07.288Z,80.03
2019-03-26T01:54:33.917Z,80.76
2019-03-26T01:57:00.539Z,81.53
2019-03-26T01:59:27.248Z,82.07
2019-03-26T02:01:53.837Z,81.77
2019-03-26T02:04:20.494Z,79.61
2019-03-26T02:06:47.191Z,79.27
2019-03-26T02:09:13.811Z,78.97
2019-03-26T02:11:40.434Z,78.42
2019-03-26T02:14:07.591Z,78.40
2019-03-26T02:16:34.287Z,78.25
2019-03-26T02:19:00.914Z,78.21
2019-03-26T02:21:27.668Z,77.72
2019-03-26T02:23:54.257Z,77.24
2019-03-26T02:26:20.934Z,77.49
2019-03-26T02:28:47.627Z,76.72
2019-03-26T02:31:14.284Z,76.69
2019-03-26T02:33:41.035Z,76.60
2019-03-26T02:36:07.744Z,76.11
2019-03-26T02:38:34.348Z,76.02
2019-03-26T02:41:01.016Z,76.15
2019-03-26T02:43:27.685Z,75.85
2019-03-26T02:45:54.314Z,75.54
2019-03-26T02:48:20.948Z,75.88
2019-03-26T02:50:47.673Z,76.45
2019-03-26T02:53:14.406Z,76.20
2019-03-26T02:55:41.089Z,76.16
2019-03-26T02:58:07.811Z,75.89
2019-03-26T03:00:34.394Z,76.44
2019-03-26T03:03:01.062Z,76.36
2019-03-26T03:05:35.286Z,76.39
2019-03-26T03:07:56.336Z,76.61
2019-03-26T03:10:23.156Z,76.41
2019-03-26T03:12:49.872Z,76.03
2019-03-26T03:15:16.545Z,76.52
2019-03-26T03:17:43.181Z,76.45
2019-03-26T03:20:10.177Z,76.63
2019-03-26T03:22:36.804Z,76.19
2019-03-26T03:25:04.036Z,76.10
2019-03-26T03:27:30.721Z,76.33
2019-03-26T03:29:57.428Z,76.74
2019-03-26T03:32:24.210Z,77.56
2019-03-26T03:34:50.951Z,77.91
2019-03-26T03:37:17.530Z,77.51
2019-03-26T03:39:44.227Z,77.67
2019-03-26T03:42:10.916Z,77.82
2019-03-26T03:44:37.613Z,77.99
2019-03-26T03:47:05.000Z,77.88
2019-03-26T03:49:31.731Z,78.00
2019-03-26T03:52:01.660Z,77.76
2019-03-26T03:54:28.513Z,78.07
2019-03-26T03:56:56.450Z,77.64
2019-03-26T03:59:23.346Z,77.94
2019-03-26T04:01:49.940Z,78.01
2019-03-26T04:04:16.615Z,78.06
2019-03-26T04:06:43.213Z,77.57
2019-03-26T04:09:09.841Z,77.89
2019-03-26T04:11:36.525Z,77.80
2019-03-26T04:14:03.173Z,78.00
2019-03-26T04:16:29.945Z,78.13
2019-03-26T04:18:56.783Z,78.17
2019-03-26T04:21:23.375Z,77.56
2019-03-26T04:23:49.996Z,77.26
2019-03-26T04:26:16.671Z,77.11
2019-03-26T04:28:43.365Z,76.92
2019-03-26T04:31:09.999Z,77.31
2019-03-26T04:33:36.720Z,77.36
2019-03-26T04:36:03.447Z,77.23
2019-03-26T04:38:30.104Z,76.99
2019-03-26T04:40:56.789Z,76.24
2019-03-26T04:43:23.414Z,76.94
2019-03-26T04:45:50.056Z,76.97
2019-03-26T04:48:16.864Z,77.31
2019-03-26T04:50:43.471Z,77.38
2019-03-26T04:53:10.166Z,76.37
2019-03-26T04:55:36.829Z,76.93
2019-03-26T04:58:03.555Z,77.11
2019-03-26T05:00:30.356Z,76.62
2019-03-26T05:02:58.058Z,76.30
2019-03-26T05:05:24.748Z,76.38
2019-03-26T05:07:51.464Z,76.08
2019-03-26T05:10:18.158Z,76.22
2019-03-26T05:12:44.778Z,76.35
2019-03-26T05:15:11.561Z,75.63
2019-03-26T05:17:38.331Z,75.58
2019-03-26T05:20:06.270Z,75.59
2019-03-26T05:22:32.954Z,75.49
2019-03-26T05:24:59.665Z,75.25
2019-03-26T05:27:26.277Z,74.79
2019-03-26T05:29:52.900Z,75.43
2019-03-26T05:32:19.615Z,75.69
2019-03-26T05:34:46.229Z,76.11
2019-03-26T05:37:12.821Z,75.86
2019-03-26T05:39:39.494Z,76.13
2019-03-26T05:42:06.108Z,76.98
2019-03-26T05:44:32.701Z,77.15
2019-03-26T05:47:01.704Z,77.51
2019-03-26T05:49:28.003Z,78.00
2019-03-26T05:51:54.635Z,77.39
2019-03-26T05:54:21.322Z,77.78
2019-03-26T05:56:47.928Z,78.93
2019-03-26T05:59:14.517Z,79.55
2019-03-26T06:01:41.190Z,79.37
2019-03-26T06:04:07.897Z,78.75
2019-03-26T06:06:34.550Z,78.45
2019-03-26T06:09:01.262Z,79.14
2019-03-26T06:11:29.672Z,79.30
2019-03-26T06:13:56.394Z,80.06
2019-03-26T06:16:23.043Z,80.42
2019-03-26T06:18:49.811Z,79.64
2019-03-26T06:21:16.526Z,79.41
2019-03-26T06:23:43.248Z,80.02
2019-03-26T06:26:09.827Z,78.93
2019-03-26T06:28:37.593Z,79.24
2019-03-26T06:31:04.272Z,78.55
2019-03-26T06:33:30.913Z,79.98
2019-03-26T06:35:57.611Z,77.69
2019-03-26T06:38:24.297Z,76.68
2019-03-26T06:40:50.920Z,75.37
2019-03-26T06:43:17.543Z,75.61
2019-03-26T06:45:44.247Z,75.28
2019-03-26T06:48:10.860Z,72.50
2019-03-26T06:50:37.543Z,71.10
2019-03-26T06:53:04.222Z,69.45
2019-03-26T06:55:30.851Z,68.50
2019-03-26T06:57:57.521Z,67.20
2019-03-26T07:00:33.663Z,66.29
2019-03-26T07:03:03.175Z,65.63
2019-03-26T07:05:29.857Z,66.34
2019-03-26T07:07:56.558Z,64.38
2019-03-26T07:10:27.485Z,64.37
2019-03-26T07:12:54.214Z,62.30
2019-03-26T07:15:20.899Z,58.47
2019-03-26T07:17:47.508Z,58.23
2019-03-26T07:20:14.247Z,58.69
2019-03-26T07:22:40.943Z,59.40
2019-03-26T07:25:09.714Z,60.26
2019-03-26T07:27:36.736Z,56.19
2019-03-26T07:30:06.056Z,54.36
2019-03-26T07:32:32.657Z,55.55
2019-03-26T07:34:59.340Z,51.66
2019-03-26T07:37:26.031Z,52.19
2019-03-26T07:39:52.780Z,50.83
2019-03-26T07:42:19.474Z,50.49
2019-03-26T07:44:46.202Z,49.34
2019-03-26T07:47:12.806Z,51.11
2019-03-26T07:49:39.506Z,51.05
2019-03-26T07:52:06.194Z,49.71
2019-03-26T07:54:32.905Z,51.16
2019-03-26T07:56:59.591Z,52.31
2019-03-26T07:59:27.416Z,47.40
2019-03-26T08:01:54.033Z,48.85
2019-03-26T08:04:20.715Z,50.61
2019-03-26T08:06:47.383Z,49.63
2019-03-26T08:09:14.097Z,48.27
2019-03-26T08:11:40.888Z,48.27
2019-03-26T08:14:07.654Z,47.55
2019-03-26T08:16:34.479Z,44.48
2019-03-26T08:19:01.087Z,46.66
2019-03-26T08:21:28.681Z,44.20
2019-03-26T08:23:55.429Z,45.29
2019-03-26T08:26:22.135Z,44.81
2019-03-26T08:28:48.835Z,42.31
2019-03-26T08:31:15.501Z,40.30
2019-03-26T08:33:42.168Z,42.97
2019-03-26T08:36:08.857Z,41.64
2019-03-26T08:38:35.559Z,43.93
2019-03-26T08:41:02.282Z,42.10
2019-03-26T08:43:29.107Z,40.42
2019-03-26T08:45:55.717Z,44.59
2019-03-26T08:48:22.389Z,41.13
2019-03-26T08:50:49.075Z,38.55
2019-03-26T08:53:15.705Z,41.81
2019-03-26T08:55:42.448Z,40.34
2019-03-26T08:58:09.177Z,38.37
2019-03-26T09:00:35.867Z,40.31
2019-03-26T09:03:02.631Z,36.16
2019-03-26T09:05:29.353Z,36.39
2019-03-26T09:07:56.077Z,39.15
2019-03-26T09:10:22.717Z,39.49
2019-03-26T09:12:49.454Z,39.08
2019-03-26T09:15:16.299Z,37.21
2019-03-26T09:17:44.648Z,37.06
2019-03-26T09:20:12.337Z,38.54
2019-03-26T09:22:39.183Z,37.36
2019-03-26T09:25:06.427Z,42.19
2019-03-26T09:27:33.094Z,36.94
2019-03-26T09:29:59.743Z,36.80
2019-03-26T09:32:26.570Z,36.55
2019-03-26T09:34:54.261Z,34.26
2019-03-26T09:37:25.750Z,36.17
2019-03-26T09:39:52.559Z,35.47
2019-03-26T09:42:19.312Z,36.00
2019-03-26T09:44:46.030Z,33.79
2019-03-26T09:47:16.518Z,33.05
2019-03-26T09:49:41.360Z,34.72
2019-03-26T09:52:08.088Z,33.03
2019-03-26T09:54:34.676Z,33.51
2019-03-26T09:57:01.335Z,33.97
2019-03-26T09:59:28.027Z,31.34
2019-03-26T10:01:54.753Z,32.83
2019-03-26T10:04:21.475Z,30.65
2019-03-26T10:06:48.181Z,32.88
2019-03-26T10:09:14.806Z,31.86
2019-03-26T10:11:41.460Z,31.99
2019-03-26T10:14:09.135Z,33.48
2019-03-26T10:16:35.787Z,32.02
2019-03-26T10:19:02.490Z,31.48
2019-03-26T10:21:29.182Z,32.56
2019-03-26T10:23:55.948Z,30.89
2019-03-26T10:26:22.673Z,32.20
2019-03-26T10:28:49.371Z,32.20
2019-03-26T10:31:16.107Z,30.76
2019-03-26T10:33:42.785Z,28.61
2019-03-26T10:36:09.579Z,31.92
2019-03-26T10:38:36.274Z,27.24
2019-03-26T10:41:02.970Z,30.26
2019-03-26T10:43:29.676Z,32.17
2019-03-26T10:45:56.278Z,30.09
2019-03-26T10:48:22.911Z,30.91
2019-03-26T10:50:49.638Z,34.28
2019-03-26T10:53:16.255Z,30.46
2019-03-26T10:55:42.896Z,29.77
2019-03-26T10:58:09.571Z,30.69
2019-03-26T11:00:36.191Z,31.52
2019-03-26T11:03:02.802Z,31.86
2019-03-26T11:05:29.486Z,31.81
2019-03-26T11:07:56.097Z,31.99
2019-03-26T11:10:22.689Z,28.74
2019-03-26T11:12:49.354Z,29.31
2019-03-26T11:15:16.065Z,30.37
2019-03-26T11:17:42.995Z,31.80
2019-03-26T11:20:10.176Z,28.07
2019-03-26T11:22:36.895Z,31.67
2019-03-26T11:25:05.304Z,27.83
2019-03-26T11:27:32.043Z,29.20
2019-03-26T11:29:58.653Z,30.77
2019-03-26T11:32:25.670Z,27.83
2019-03-26T11:34:52.406Z,29.26
2019-03-26T11:37:19.044Z,29.31
2019-03-26T11:39:45.667Z,30.02
2019-03-26T11:42:12.677Z,29.82
2019-03-26T11:44:39.271Z,32.09
2019-03-26T11:47:05.943Z,31.23
2019-03-26T11:49:32.614Z,30.24
2019-03-26T11:51:59.341Z,28.69
2019-03-26T11:54:26.054Z,29.04
2019-03-26T11:56:52.744Z,31.55
2019-03-26T11:59:19.428Z,29.56
2019-03-26T12:01:46.138Z,29.23
2019-03-26T12:04:12.885Z,28.38
2019-03-26T12:06:40.583Z,29.48
2019-03-26T12:09:07.556Z,28.76
2019-03-26T12:11:34.231Z,29.43
2019-03-26T12:14:00.951Z,29.47
2019-03-26T12:16:27.653Z,29.46
2019-03-26T12:18:54.374Z,31.43
2019-03-26T12:21:20.981Z,26.41
2019-03-26T12:23:47.610Z,27.56
2019-03-26T12:26:15.428Z,28.14
2019-03-26T12:28:42.043Z,27.63
2019-03-26T12:31:08.891Z,27.57
2019-03-26T12:33:35.593Z,27.59
2019-03-26T12:36:02.302Z,27.17
2019-03-26T12:38:29.016Z,27.03
2019-03-26T12:40:55.725Z,27.10
2019-03-26T12:43:22.322Z,28.96
2019-03-26T12:45:49.309Z,27.95
2019-03-26T12:48:15.971Z,28.17
2019-03-26T12:50:42.690Z,29.17
2019-03-26T12:53:12.546Z,27.80
2019-03-26T12:55:38.015Z,29.53
2019-03-26T12:58:04.792Z,28.57
2019-03-26T13:00:31.837Z,29.48
2019-03-26T13:02:59.257Z,28.77
2019-03-26T13:05:25.860Z,29.66
2019-03-26T13:07:52.523Z,28.42
2019-03-26T13:10:19.213Z,28.55
2019-03-26T13:12:45.858Z,30.87
2019-03-26T13:15:12.589Z,26.87
2019-03-26T13:17:39.295Z,28.77
2019-03-26T13:20:06.311Z,28.60
2019-03-26T13:22:33.056Z,28.39
2019-03-26T13:24:59.797Z,27.46
2019-03-26T13:27:26.527Z,28.27
2019-03-26T13:29:53.211Z,27.09
2019-03-26T13:32:20.017Z,28.80
2019-03-26T13:34:46.653Z,27.31
2019-03-26T13:37:13.400Z,28.98
2019-03-26T13:39:40.134Z,27.94
2019-03-26T13:42:06.885Z,28.88
2019-03-26T13:44:33.619Z,26.94
2019-03-26T13:47:00.361Z,28.15
2019-03-26T13:49:27.092Z,28.63
2019-03-26T13:51:53.845Z,28.05
2019-03-26T13:54:20.677Z,27.17
2019-03-26T13:56:47.416Z,28.68
2019-03-26T13:59:14.156Z,28.37
2019-03-26T14:01:41.100Z,29.45
2019-03-26T14:04:07.832Z,27.93
2019-03-26T14:06:34.571Z,28.66
2019-03-26T14:09:01.322Z,28.22
2019-03-26T14:11:28.978Z,28.69
2019-03-26T14:13:55.710Z,28.35
2019-03-26T14:16:22.451Z,28.45
2019-03-26T14:18:49.191Z,28.80
2019-03-26T14:21:15.936Z,29.12
2019-03-26T14:23:42.677Z,29.39
2019-03-26T14:26:09.418Z,29.35
2019-03-26T14:28:36.114Z,29.55
2019-03-26T14:31:02.896Z,28.62
2019-03-26T14:33:29.733Z,29.14
2019-03-26T14:35:56.990Z,29.11
2019-03-26T14:38:23.927Z,28.06
2019-03-26T14:40:55.265Z,29.14
2019-03-26T14:43:19.145Z,28.02
2019-03-26T14:45:45.885Z,28.13
2019-03-26T14:48:12.635Z,29.05
2019-03-26T14:50:39.362Z,28.17
2019-03-26T14:53:06.110Z,28.41
2019-03-26T14:55:32.742Z,29.60
2019-03-26T14:57:59.488Z,29.10
2019-03-26T15:00:26.429Z,30.35
2019-03-26T15:02:53.161Z,30.03
2019-03-26T15:07:47.665Z,30.01
2019-03-26T15:10:14.822Z,29.35
2019-03-26T15:12:41.553Z,28.96
2019-03-26T15:15:08.508Z,28.77
2019-03-26T15:17:35.139Z,29.02
2019-03-26T15:20:02.830Z,30.08
2019-03-26T15:22:29.492Z,29.34
2019-03-26T15:24:59.350Z,29.75
2019-03-26T15:27:24.754Z,29.34
2019-03-26T15:29:51.599Z,29.76
2019-03-26T15:32:18.404Z,30.32
2019-03-26T15:34:45.184Z,30.02
2019-03-26T15:37:12.027Z,29.89
2019-03-26T15:39:38.758Z,28.85
2019-03-26T15:42:05.511Z,29.29
2019-03-26T15:44:32.238Z,30.40
2019-03-26T15:46:58.982Z,30.88
2019-03-26T15:49:25.723Z,31.12
2019-03-26T15:51:52.464Z,30.32
2019-03-26T15:54:19.204Z,30.79
2019-03-26T15:56:45.935Z,30.41
2019-03-26T15:59:12.777Z,30.10
2019-03-26T16:01:39.530Z,31.09
2019-03-26T16:04:06.257Z,31.05
2019-03-26T16:06:32.994Z,31.15
2019-03-26T16:08:59.838Z,30.90
2019-03-26T16:11:35.500Z,30.42
2019-03-26T16:13:55.249Z,30.74
2019-03-26T16:16:21.910Z,30.66
2019-03-26T16:18:48.637Z,30.63
2019-03-26T16:21:15.479Z,31.36
2019-03-26T16:23:42.222Z,31.26
2019-03-26T16:26:08.958Z,31.04
2019-03-26T16:28:36.723Z,30.64
2019-03-26T16:31:03.768Z,31.54
2019-03-26T16:33:30.516Z,31.11
2019-03-26T16:35:57.247Z,31.33
2019-03-26T16:38:23.859Z,31.09
2019-03-26T16:40:50.593Z,31.09
2019-03-26T16:43:17.337Z,31.12
2019-03-26T16:45:44.035Z,31.62
2019-03-26T16:48:10.847Z,31.91
2019-03-26T16:50:37.570Z,32.39
2019-03-26T16:53:04.442Z,31.90
2019-03-26T16:55:31.367Z,31.76
2019-03-26T16:57:58.350Z,31.99
2019-03-26T17:00:32.148Z,32.44
2019-03-26T17:02:59.738Z,32.31
2019-03-26T17:05:27.192Z,32.34
2019-03-26T17:07:55.108Z,32.84
2019-03-26T17:10:21.845Z,32.45
2019-03-26T17:12:48.578Z,32.81
2019-03-26T17:15:15.172Z,33.70
2019-03-26T17:17:41.762Z,33.35
2019-03-26T17:20:08.697Z,33.28
2019-03-26T17:22:35.333Z,33.87
2019-03-26T17:25:02.933Z,34.01
2019-03-26T17:27:29.591Z,34.67
2019-03-26T17:29:56.290Z,34.55
2019-03-26T17:32:22.935Z,34.58
2019-03-26T17:34:49.603Z,35.16
2019-03-26T17:37:17.196Z,35.25
2019-03-26T17:39:43.791Z,35.52
2019-03-26T17:42:17.143Z,34.99
2019-03-26T17:44:39.066Z,35.87
2019-03-26T17:47:05.683Z,35.24
2019-03-26T17:49:32.384Z,35.67
2019-03-26T17:51:58.994Z,35.61
2019-03-26T17:54:25.670Z,35.11
2019-03-26T17:56:52.334Z,35.93
2019-03-26T17:59:18.955Z,35.90
2019-03-26T18:01:45.584Z,36.10
2019-03-26T18:04:12.297Z,36.36
2019-03-26T18:06:38.875Z,36.93
2019-03-26T18:09:05.951Z,36.91
2019-03-26T18:11:32.616Z,37.44
2019-03-26T18:13:59.240Z,37.49
2019-03-26T18:16:25.968Z,37.11
2019-03-26T18:18:55.006Z,37.49
2019-03-26T18:21:21.279Z,37.80
2019-03-26T18:23:47.967Z,37.45
2019-03-26T18:26:14.691Z,37.49
2019-03-26T18:28:41.279Z,38.34
2019-03-26T18:31:07.934Z,39.14
2019-03-26T18:33:34.801Z,38.94
2019-03-26T18:36:01.516Z,39.08
2019-03-26T18:38:28.221Z,39.09
2019-03-26T18:40:54.919Z,39.18
2019-03-26T18:43:21.517Z,38.70
2019-03-26T18:45:48.165Z,38.58
2019-03-26T18:48:14.896Z,38.87
2019-03-26T18:50:41.487Z,38.97
2019-03-26T18:53:08.106Z,39.93
2019-03-26T18:55:34.819Z,40.14
2019-03-26T18:58:01.419Z,40.79
2019-03-26T19:00:35.510Z,40.84
2019-03-26T19:03:02.692Z,41.04
2019-03-26T19:05:29.290Z,41.59
2019-03-26T19:07:55.984Z,42.04
2019-03-26T19:10:25.289Z,42.88
2019-03-26T19:12:56.724Z,43.11
2019-03-26T19:15:20.415Z,43.85
2019-03-26T19:17:47.163Z,44.05
2019-03-26T19:20:13.799Z,43.96
2019-03-26T19:22:40.509Z,44.55
2019-03-26T19:25:07.403Z,45.17
2019-03-26T19:27:33.998Z,45.49
2019-03-26T19:30:00.590Z,45.63
2019-03-26T19:32:27.390Z,45.27
2019-03-26T19:34:54.232Z,45.79
2019-03-26T19:37:21.855Z,46.17
2019-03-26T19:39:48.543Z,46.46
2019-03-26T19:42:15.149Z,46.87
2019-03-26T19:44:42.203Z,46.53
2019-03-26T19:47:09.035Z,47.89
2019-03-26T19:49:35.745Z,47.20
2019-03-26T19:52:02.463Z,47.47
2019-03-26T19:54:29.177Z,47.21
2019-03-26T19:56:55.903Z,48.14
2019-03-26T19:59:22.669Z,48.23
2019-03-26T20:01:49.386Z,48.28
2019-03-26T20:04:16.013Z,48.44
2019-03-26T20:06:43.795Z,48.93
2019-03-26T20:09:10.530Z,49.25
2019-03-26T20:11:37.128Z,49.14
2019-03-26T20:14:03.836Z,49.53
2019-03-26T20:16:41.262Z,49.64
2019-03-26T20:18:59.725Z,49.82
2019-03-26T20:21:27.611Z,49.94
2019-03-26T20:23:54.756Z,49.85
2019-03-26T20:26:21.384Z,49.78
2019-03-26T20:28:48.118Z,48.63
2019-03-26T20:31:14.726Z,48.00
2019-03-26T20:33:42.599Z,46.94
2019-03-26T20:36:09.512Z,44.83
2019-03-26T20:38:36.134Z,44.48
2019-03-26T20:41:03.110Z,45.69
2019-03-26T20:43:37.159Z,44.77
2019-03-26T20:45:58.333Z,43.85
2019-03-26T20:48:24.990Z,43.77
2019-03-26T20:50:51.666Z,43.90
2019-03-26T20:53:18.307Z,43.72
2019-03-26T20:55:54.345Z,43.99
2019-03-26T20:58:13.561Z,43.34
2019-03-26T21:00:41.213Z,42.70
2019-03-26T21:03:07.908Z,42.11
2019-03-26T21:05:34.854Z,41.86
2019-03-26T21:08:01.452Z,41.77
2019-03-26T21:10:28.216Z,41.32
2019-03-26T21:12:54.847Z,41.37
2019-03-26T21:15:21.588Z,40.66
2019-03-26T21:17:48.280Z,41.18
2019-03-26T21:20:14.984Z,41.73
2019-03-26T21:22:41.701Z,41.97
2019-03-26T21:25:08.815Z,42.23
2019-03-26T21:27:35.432Z,42.19
2019-03-26T21:30:11.580Z,42.43
2019-03-26T21:32:35.557Z,41.94
2019-03-26T21:35:03.553Z,42.14
2019-03-26T21:37:30.226Z,42.01
2019-03-26T21:39:56.923Z,41.90
2019-03-26T21:42:23.516Z,40.89
2019-03-26T21:44:50.130Z,40.96
2019-03-26T21:47:16.811Z,41.49
2019-03-26T21:49:43.406Z,42.16
2019-03-26T21:52:10.005Z,42.20
2019-03-26T21:54:36.693Z,42.75
2019-03-26T21:57:03.290Z,42.88
2019-03-26T21:59:29.894Z,43.21
2019-03-26T22:01:56.608Z,42.66
2019-03-26T22:04:23.264Z,42.45
2019-03-26T22:06:50.298Z,42.64
2019-03-26T22:09:17.028Z,42.92
2019-03-26T22:11:49.724Z,44.24
2019-03-26T22:14:17.888Z,44.95
2019-03-26T22:16:40.831Z,45.72
2019-03-26T22:19:07.564Z,46.22
2019-03-26T22:21:34.214Z,46.98
2019-03-26T22:24:00.940Z,47.26
2019-03-26T22:26:27.544Z,48.04
2019-03-26T22:28:54.219Z,48.45
2019-03-26T22:31:20.905Z,48.50
2019-03-26T22:33:47.539Z,49.25
2019-03-26T22:36:14.260Z,49.16
2019-03-26T22:38:41.122Z,49.45
2019-03-26T22:41:07.816Z,49.49
2019-03-26T22:43:34.532Z,49.96
2019-03-26T22:46:01.239Z,51.02
2019-03-26T22:48:27.838Z,50.64
2019-03-26T22:50:54.514Z,51.22
2019-03-26T22:53:21.244Z,51.21
2019-03-26T22:55:48.060Z,50.96
2019-03-26T22:58:14.766Z,51.40
2019-03-26T23:00:42.449Z,52.11
2019-03-26T23:03:10.856Z,52.05
2019-03-26T23:05:37.512Z,52.34
2019-03-26T23:08:04.232Z,53.16
2019-03-26T23:10:30.892Z,55.16
2019-03-26T23:12:57.500Z,56.93
2019-03-26T23:15:24.678Z,56.81
2019-03-26T23:17:51.466Z,56.61
2019-03-26T23:20:18.096Z,55.78
2019-03-26T23:22:44.809Z,55.39
2019-03-26T23:25:11.846Z,55.77
2019-03-26T23:27:38.435Z,55.45
2019-03-26T23:30:06.109Z,55.61
2019-03-26T23:32:32.831Z,55.67
2019-03-26T23:34:59.444Z,55.68
2019-03-26T23:37:26.121Z,55.99
2019-03-26T23:39:53.803Z,56.72
2019-03-26T23:42:20.524Z,56.85
2019-03-26T23:44:57.664Z,56.49
2019-03-26T23:47:15.756Z,56.67
2019-03-26T23:49:42.433Z,56.48
2019-03-26T23:52:09.133Z,56.55
2019-03-26T23:54:35.852Z,56.34
2019-03-26T23:57:02.535Z,56.31
2019-03-26T23:59:29.235Z,56.27
